sensor_id;sensor_type;location;lat;lon;timestamp;temperature;humidity
63966;DHT22;50151;52.030;5.350;2023-05-07T00:01:44;15.50;99.90
63966;DHT22;50151;52.030;5.350;2023-05-07T00:04:11;15.50;99.90
63966;DHT22;50151;52.030;5.350;2023-05-07T00:06:38;15.50;99.90
63966;DHT22;50151;52.030;5.350;2023-05-07T00:09:06;15.50;99.90
63966;DHT22;50151;52.030;5.350;2023-05-07T00:11:33;15.50;99.90
63966;DHT22;50151;52.030;5.350;2023-05-07T00:14:02;15.40;99.90
63966;DHT22;50151;52.030;5.350;2023-05-07T00:16:29;15.40;99.90
63966;DHT22;50151;52.030;5.350;2023-05-07T00:18:55;15.30;99.90
63966;DHT22;50151;52.030;5.350;2023-05-07T00:21:22;15.30;99.90
63966;DHT22;50151;52.030;5.350;2023-05-07T00:23:49;15.30;99.90
63966;DHT22;50151;52.030;5.350;2023-05-07T00:26:16;15.30;99.90
63966;DHT22;50151;52.030;5.350;2023-05-07T00:28:42;15.30;99.90
63966;DHT22;50151;52.030;5.350;2023-05-07T00:31:09;15.20;99.90
63966;DHT22;50151;52.030;5.350;2023-05-07T00:33:36;15.20;99.90
63966;DHT22;50151;52.030;5.350;2023-05-07T00:36:03;15.20;99.90
63966;DHT22;50151;52.030;5.350;2023-05-07T00:38:30;15.20;99.90
63966;DHT22;50151;52.030;5.350;2023-05-07T00:40:56;15.20;99.90
63966;DHT22;50151;52.030;5.350;2023-05-07T00:43:23;15.20;99.90
63966;DHT22;50151;52.030;5.350;2023-05-07T00:45:50;15.20;99.90
63966;DHT22;50151;52.030;5.350;2023-05-07T00:48:17;15.10;99.90
63966;DHT22;50151;52.030;5.350;2023-05-07T00:50:45;15.10;99.90
63966;DHT22;50151;52.030;5.350;2023-05-07T00:53:12;15.20;99.90
63966;DHT22;50151;52.030;5.350;2023-05-07T00:55:39;15.10;99.90
63966;DHT22;50151;52.030;5.350;2023-05-07T00:58:06;15.10;99.90
63966;DHT22;50151;52.030;5.350;2023-05-07T01:00:33;15.20;99.90
63966;DHT22;50151;52.030;5.350;2023-05-07T01:03:00;15.20;99.90
63966;DHT22;50151;52.030;5.350;2023-05-07T01:05:28;15.10;99.90
63966;DHT22;50151;52.030;5.350;2023-05-07T01:07:56;15.10;99.90
63966;DHT22;50151;52.030;5.350;2023-05-07T01:10:24;15.00;99.90
63966;DHT22;50151;52.030;5.350;2023-05-07T01:12:51;15.10;99.90
63966;DHT22;50151;52.030;5.350;2023-05-07T01:15:18;15.10;99.90
63966;DHT22;50151;52.030;5.350;2023-05-07T01:17:45;15.10;99.90
63966;DHT22;50151;52.030;5.350;2023-05-07T01:20:12;15.00;99.90
63966;DHT22;50151;52.030;5.350;2023-05-07T01:22:40;15.00;99.90
63966;DHT22;50151;52.030;5.350;2023-05-07T01:25:08;15.10;99.90
63966;DHT22;50151;52.030;5.350;2023-05-07T01:27:35;15.10;99.90
63966;DHT22;50151;52.030;5.350;2023-05-07T01:30:06;15.10;99.90
63966;DHT22;50151;52.030;5.350;2023-05-07T01:35:28;15.00;99.90
63966;DHT22;50151;52.030;5.350;2023-05-07T01:37:56;15.00;99.90
63966;DHT22;50151;52.030;5.350;2023-05-07T01:40:24;15.10;99.90
63966;DHT22;50151;52.030;5.350;2023-05-07T01:42:51;15.10;99.90
63966;DHT22;50151;52.030;5.350;2023-05-07T01:45:18;15.10;99.90
63966;DHT22;50151;52.030;5.350;2023-05-07T01:47:45;15.10;99.90
63966;DHT22;50151;52.030;5.350;2023-05-07T01:50:16;15.10;99.90
63966;DHT22;50151;52.030;5.350;2023-05-07T01:52:43;15.10;99.90
63966;DHT22;50151;52.030;5.350;2023-05-07T01:55:10;15.10;99.90
63966;DHT22;50151;52.030;5.350;2023-05-07T01:57:37;15.10;99.90
63966;DHT22;50151;52.030;5.350;2023-05-07T02:00:04;15.10;99.90
63966;DHT22;50151;52.030;5.350;2023-05-07T02:02:31;15.10;99.90
63966;DHT22;50151;52.030;5.350;2023-05-07T02:04:59;15.10;99.90
63966;DHT22;50151;52.030;5.350;2023-05-07T02:07:26;15.00;99.90
63966;DHT22;50151;52.030;5.350;2023-05-07T02:09:53;15.00;99.90
63966;DHT22;50151;52.030;5.350;2023-05-07T02:12:22;15.00;99.90
63966;DHT22;50151;52.030;5.350;2023-05-07T02:14:49;15.00;99.90
63966;DHT22;50151;52.030;5.350;2023-05-07T02:17:16;15.00;99.90
63966;DHT22;50151;52.030;5.350;2023-05-07T02:19:42;15.00;99.90
63966;DHT22;50151;52.030;5.350;2023-05-07T02:22:10;15.00;99.90
63966;DHT22;50151;52.030;5.350;2023-05-07T02:24:36;15.00;99.90
63966;DHT22;50151;52.030;5.350;2023-05-07T02:27:03;15.00;99.90
63966;DHT22;50151;52.030;5.350;2023-05-07T02:29:30;15.00;99.90
63966;DHT22;50151;52.030;5.350;2023-05-07T02:31:56;15.00;99.90
63966;DHT22;50151;52.030;5.350;2023-05-07T02:34:23;15.00;99.90
63966;DHT22;50151;52.030;5.350;2023-05-07T02:36:50;15.00;99.90
63966;DHT22;50151;52.030;5.350;2023-05-07T02:39:17;15.00;99.90
63966;DHT22;50151;52.030;5.350;2023-05-07T02:41:43;14.90;99.90
63966;DHT22;50151;52.030;5.350;2023-05-07T02:44:10;14.90;99.90
63966;DHT22;50151;52.030;5.350;2023-05-07T02:46:36;14.90;99.90
63966;DHT22;50151;52.030;5.350;2023-05-07T02:49:03;14.90;99.90
63966;DHT22;50151;52.030;5.350;2023-05-07T02:51:30;14.90;99.90
63966;DHT22;50151;52.030;5.350;2023-05-07T02:53:57;14.90;99.90
63966;DHT22;50151;52.030;5.350;2023-05-07T02:56:26;14.90;99.90
63966;DHT22;50151;52.030;5.350;2023-05-07T02:58:52;15.00;99.90
63966;DHT22;50151;52.030;5.350;2023-05-07T03:01:19;14.90;99.90
63966;DHT22;50151;52.030;5.350;2023-05-07T03:03:47;14.90;99.90
63966;DHT22;50151;52.030;5.350;2023-05-07T03:06:14;14.90;99.90
63966;DHT22;50151;52.030;5.350;2023-05-07T03:08:40;14.90;99.90
63966;DHT22;50151;52.030;5.350;2023-05-07T03:11:07;14.90;99.90
63966;DHT22;50151;52.030;5.350;2023-05-07T03:13:33;14.80;99.90
63966;DHT22;50151;52.030;5.350;2023-05-07T03:16:00;14.80;99.90
63966;DHT22;50151;52.030;5.350;2023-05-07T03:18:27;14.80;99.90
63966;DHT22;50151;52.030;5.350;2023-05-07T03:20:53;14.80;99.90
63966;DHT22;50151;52.030;5.350;2023-05-07T03:23:20;14.70;99.90
63966;DHT22;50151;52.030;5.350;2023-05-07T03:25:50;14.60;99.90
63966;DHT22;50151;52.030;5.350;2023-05-07T03:28:16;14.60;99.90
63966;DHT22;50151;52.030;5.350;2023-05-07T03:30:43;14.50;99.90
63966;DHT22;50151;52.030;5.350;2023-05-07T03:33:10;14.60;99.90
63966;DHT22;50151;52.030;5.350;2023-05-07T03:35:36;14.50;99.90
63966;DHT22;50151;52.030;5.350;2023-05-07T03:38:03;14.50;99.90
63966;DHT22;50151;52.030;5.350;2023-05-07T03:40:30;14.50;99.90
63966;DHT22;50151;52.030;5.350;2023-05-07T03:42:56;14.50;99.90
63966;DHT22;50151;52.030;5.350;2023-05-07T03:45:23;14.50;99.90
63966;DHT22;50151;52.030;5.350;2023-05-07T03:47:50;14.40;99.90
63966;DHT22;50151;52.030;5.350;2023-05-07T03:50:16;14.50;99.90
63966;DHT22;50151;52.030;5.350;2023-05-07T03:52:43;14.40;99.90
63966;DHT22;50151;52.030;5.350;2023-05-07T03:55:10;14.40;99.90
63966;DHT22;50151;52.030;5.350;2023-05-07T03:57:37;14.40;99.90
63966;DHT22;50151;52.030;5.350;2023-05-07T04:00:04;14.30;99.90
63966;DHT22;50151;52.030;5.350;2023-05-07T04:02:32;14.30;99.90
63966;DHT22;50151;52.030;5.350;2023-05-07T04:04:59;14.30;99.90
63966;DHT22;50151;52.030;5.350;2023-05-07T04:07:26;14.40;99.90
63966;DHT22;50151;52.030;5.350;2023-05-07T04:09:53;14.40;99.90
63966;DHT22;50151;52.030;5.350;2023-05-07T04:12:20;14.40;99.90
63966;DHT22;50151;52.030;5.350;2023-05-07T04:14:46;14.30;99.90
63966;DHT22;50151;52.030;5.350;2023-05-07T04:17:13;14.40;99.90
63966;DHT22;50151;52.030;5.350;2023-05-07T04:19:39;14.40;99.90
63966;DHT22;50151;52.030;5.350;2023-05-07T04:22:11;14.40;99.90
63966;DHT22;50151;52.030;5.350;2023-05-07T04:24:38;14.40;99.90
63966;DHT22;50151;52.030;5.350;2023-05-07T04:27:05;14.40;99.90
63966;DHT22;50151;52.030;5.350;2023-05-07T04:29:32;14.40;99.90
63966;DHT22;50151;52.030;5.350;2023-05-07T04:31:59;14.50;99.90
63966;DHT22;50151;52.030;5.350;2023-05-07T04:34:26;14.40;99.90
63966;DHT22;50151;52.030;5.350;2023-05-07T04:36:53;14.50;99.90
63966;DHT22;50151;52.030;5.350;2023-05-07T04:39:19;14.50;99.90
63966;DHT22;50151;52.030;5.350;2023-05-07T04:41:46;14.50;99.90
63966;DHT22;50151;52.030;5.350;2023-05-07T04:44:13;14.50;99.90
63966;DHT22;50151;52.030;5.350;2023-05-07T04:46:39;14.60;99.90
63966;DHT22;50151;52.030;5.350;2023-05-07T04:49:06;14.60;99.90
63966;DHT22;50151;52.030;5.350;2023-05-07T04:51:33;14.60;99.90
63966;DHT22;50151;52.030;5.350;2023-05-07T04:53:59;14.60;99.90
63966;DHT22;50151;52.030;5.350;2023-05-07T04:56:28;14.60;99.90
63966;DHT22;50151;52.030;5.350;2023-05-07T04:58:55;14.60;99.90
63966;DHT22;50151;52.030;5.350;2023-05-07T05:01:22;14.60;99.90
63966;DHT22;50151;52.030;5.350;2023-05-07T05:03:49;14.60;99.90
63966;DHT22;50151;52.030;5.350;2023-05-07T05:06:15;14.60;99.90
63966;DHT22;50151;52.030;5.350;2023-05-07T05:08:42;14.60;99.90
63966;DHT22;50151;52.030;5.350;2023-05-07T05:11:09;14.70;99.90
63966;DHT22;50151;52.030;5.350;2023-05-07T05:13:36;14.70;99.90
63966;DHT22;50151;52.030;5.350;2023-05-07T05:16:03;14.70;99.90
63966;DHT22;50151;52.030;5.350;2023-05-07T05:18:29;14.70;99.90
63966;DHT22;50151;52.030;5.350;2023-05-07T05:20:56;14.70;99.90
63966;DHT22;50151;52.030;5.350;2023-05-07T05:23:23;14.70;99.90
63966;DHT22;50151;52.030;5.350;2023-05-07T05:25:49;14.80;99.90
63966;DHT22;50151;52.030;5.350;2023-05-07T05:28:16;14.70;99.90
63966;DHT22;50151;52.030;5.350;2023-05-07T05:30:43;14.70;99.90
63966;DHT22;50151;52.030;5.350;2023-05-07T05:33:09;14.70;99.90
63966;DHT22;50151;52.030;5.350;2023-05-07T05:35:36;14.80;99.90
63966;DHT22;50151;52.030;5.350;2023-05-07T05:38:03;14.80;99.90
63966;DHT22;50151;52.030;5.350;2023-05-07T05:40:30;14.80;99.90
63966;DHT22;50151;52.030;5.350;2023-05-07T05:42:56;14.90;99.90
63966;DHT22;50151;52.030;5.350;2023-05-07T05:45:23;14.90;99.90
63966;DHT22;50151;52.030;5.350;2023-05-07T05:47:50;14.90;99.90
63966;DHT22;50151;52.030;5.350;2023-05-07T05:50:17;14.90;99.90
63966;DHT22;50151;52.030;5.350;2023-05-07T05:52:43;14.80;99.90
63966;DHT22;50151;52.030;5.350;2023-05-07T05:55:10;14.80;99.90
63966;DHT22;50151;52.030;5.350;2023-05-07T05:57:37;14.80;99.90
63966;DHT22;50151;52.030;5.350;2023-05-07T06:00:04;14.80;99.90
63966;DHT22;50151;52.030;5.350;2023-05-07T06:02:31;14.90;99.90
63966;DHT22;50151;52.030;5.350;2023-05-07T06:04:58;14.90;99.90
63966;DHT22;50151;52.030;5.350;2023-05-07T06:07:25;14.90;99.90
63966;DHT22;50151;52.030;5.350;2023-05-07T06:09:51;14.90;99.90
63966;DHT22;50151;52.030;5.350;2023-05-07T06:12:18;14.90;99.90
63966;DHT22;50151;52.030;5.350;2023-05-07T06:14:45;14.90;99.90
63966;DHT22;50151;52.030;5.350;2023-05-07T06:17:11;14.90;99.90
63966;DHT22;50151;52.030;5.350;2023-05-07T06:19:38;14.80;99.90
63966;DHT22;50151;52.030;5.350;2023-05-07T06:22:05;14.80;99.90
63966;DHT22;50151;52.030;5.350;2023-05-07T06:24:31;14.80;99.90
63966;DHT22;50151;52.030;5.350;2023-05-07T06:26:58;14.80;99.90
63966;DHT22;50151;52.030;5.350;2023-05-07T06:29:25;14.80;99.90
63966;DHT22;50151;52.030;5.350;2023-05-07T06:31:56;14.80;99.90
63966;DHT22;50151;52.030;5.350;2023-05-07T06:34:32;14.80;99.90
63966;DHT22;50151;52.030;5.350;2023-05-07T06:36:59;14.80;99.90
63966;DHT22;50151;52.030;5.350;2023-05-07T06:39:25;14.80;99.90
63966;DHT22;50151;52.030;5.350;2023-05-07T06:41:52;14.90;99.90
63966;DHT22;50151;52.030;5.350;2023-05-07T06:44:18;14.90;99.90
63966;DHT22;50151;52.030;5.350;2023-05-07T06:46:45;14.90;99.90
63966;DHT22;50151;52.030;5.350;2023-05-07T06:49:13;14.90;99.90
63966;DHT22;50151;52.030;5.350;2023-05-07T06:51:40;15.00;99.90
63966;DHT22;50151;52.030;5.350;2023-05-07T06:54:07;14.90;99.90
63966;DHT22;50151;52.030;5.350;2023-05-07T06:56:34;14.90;99.90
63966;DHT22;50151;52.030;5.350;2023-05-07T06:59:02;15.00;99.90
63966;DHT22;50151;52.030;5.350;2023-05-07T07:01:29;15.10;99.90
63966;DHT22;50151;52.030;5.350;2023-05-07T07:03:56;15.10;99.90
63966;DHT22;50151;52.030;5.350;2023-05-07T07:06:26;15.10;99.90
63966;DHT22;50151;52.030;5.350;2023-05-07T07:08:53;15.20;99.90
63966;DHT22;50151;52.030;5.350;2023-05-07T07:11:22;15.30;99.90
63966;DHT22;50151;52.030;5.350;2023-05-07T07:13:52;15.40;99.90
63966;DHT22;50151;52.030;5.350;2023-05-07T07:16:21;15.40;99.90
63966;DHT22;50151;52.030;5.350;2023-05-07T07:18:48;15.50;99.90
63966;DHT22;50151;52.030;5.350;2023-05-07T07:21:15;15.50;99.90
63966;DHT22;50151;52.030;5.350;2023-05-07T07:23:42;15.60;99.90
63966;DHT22;50151;52.030;5.350;2023-05-07T07:26:10;15.60;99.90
63966;DHT22;50151;52.030;5.350;2023-05-07T07:28:46;15.60;99.90
63966;DHT22;50151;52.030;5.350;2023-05-07T07:31:14;15.60;99.90
63966;DHT22;50151;52.030;5.350;2023-05-07T07:33:41;15.60;99.90
63966;DHT22;50151;52.030;5.350;2023-05-07T07:36:08;15.60;99.90
63966;DHT22;50151;52.030;5.350;2023-05-07T07:38:37;15.80;99.90
63966;DHT22;50151;52.030;5.350;2023-05-07T07:41:04;15.80;99.90
63966;DHT22;50151;52.030;5.350;2023-05-07T07:43:31;15.90;99.90
63966;DHT22;50151;52.030;5.350;2023-05-07T07:46:00;16.00;99.90
63966;DHT22;50151;52.030;5.350;2023-05-07T07:48:27;16.10;99.90
63966;DHT22;50151;52.030;5.350;2023-05-07T07:50:53;16.10;99.90
63966;DHT22;50151;52.030;5.350;2023-05-07T07:53:20;16.10;99.90
63966;DHT22;50151;52.030;5.350;2023-05-07T07:55:47;16.10;99.90
63966;DHT22;50151;52.030;5.350;2023-05-07T07:58:13;16.10;99.90
63966;DHT22;50151;52.030;5.350;2023-05-07T08:00:40;16.20;99.90
63966;DHT22;50151;52.030;5.350;2023-05-07T08:03:09;16.20;99.90
63966;DHT22;50151;52.030;5.350;2023-05-07T08:05:38;16.20;99.90
63966;DHT22;50151;52.030;5.350;2023-05-07T08:08:05;16.30;99.90
63966;DHT22;50151;52.030;5.350;2023-05-07T08:10:37;16.30;99.90
63966;DHT22;50151;52.030;5.350;2023-05-07T08:13:05;16.30;99.90
63966;DHT22;50151;52.030;5.350;2023-05-07T08:15:32;16.40;99.90
63966;DHT22;50151;52.030;5.350;2023-05-07T08:18:01;16.30;99.90
63966;DHT22;50151;52.030;5.350;2023-05-07T08:20:29;16.40;99.90
63966;DHT22;50151;52.030;5.350;2023-05-07T08:22:56;16.40;99.90
63966;DHT22;50151;52.030;5.350;2023-05-07T08:25:23;16.40;99.90
63966;DHT22;50151;52.030;5.350;2023-05-07T08:27:49;16.40;99.90
63966;DHT22;50151;52.030;5.350;2023-05-07T08:30:17;16.40;99.90
63966;DHT22;50151;52.030;5.350;2023-05-07T08:32:45;16.30;99.90
63966;DHT22;50151;52.030;5.350;2023-05-07T08:35:11;16.30;99.90
63966;DHT22;50151;52.030;5.350;2023-05-07T08:37:38;16.30;99.90
63966;DHT22;50151;52.030;5.350;2023-05-07T08:40:05;16.30;99.90
63966;DHT22;50151;52.030;5.350;2023-05-07T08:42:36;16.40;99.90
63966;DHT22;50151;52.030;5.350;2023-05-07T08:45:05;16.30;99.90
63966;DHT22;50151;52.030;5.350;2023-05-07T08:47:42;16.30;99.90
63966;DHT22;50151;52.030;5.350;2023-05-07T08:50:10;16.30;99.90
63966;DHT22;50151;52.030;5.350;2023-05-07T08:52:39;16.50;99.90
63966;DHT22;50151;52.030;5.350;2023-05-07T08:55:07;16.40;99.90
63966;DHT22;50151;52.030;5.350;2023-05-07T08:57:34;16.50;99.90
63966;DHT22;50151;52.030;5.350;2023-05-07T09:00:08;16.60;99.90
63966;DHT22;50151;52.030;5.350;2023-05-07T09:02:36;16.60;99.90
63966;DHT22;50151;52.030;5.350;2023-05-07T09:05:03;16.70;99.90
63966;DHT22;50151;52.030;5.350;2023-05-07T09:07:33;16.70;99.90
63966;DHT22;50151;52.030;5.350;2023-05-07T09:10:02;16.90;99.90
63966;DHT22;50151;52.030;5.350;2023-05-07T09:12:29;16.90;99.90
63966;DHT22;50151;52.030;5.350;2023-05-07T09:14:56;16.90;99.90
63966;DHT22;50151;52.030;5.350;2023-05-07T09:17:23;17.10;99.90
63966;DHT22;50151;52.030;5.350;2023-05-07T09:19:50;17.10;99.90
63966;DHT22;50151;52.030;5.350;2023-05-07T09:22:17;17.10;99.90
63966;DHT22;50151;52.030;5.350;2023-05-07T09:24:48;17.10;99.90
63966;DHT22;50151;52.030;5.350;2023-05-07T09:27:17;17.30;99.90
63966;DHT22;50151;52.030;5.350;2023-05-07T09:29:44;17.30;99.90
63966;DHT22;50151;52.030;5.350;2023-05-07T09:32:11;17.40;99.90
63966;DHT22;50151;52.030;5.350;2023-05-07T09:34:38;17.50;99.90
63966;DHT22;50151;52.030;5.350;2023-05-07T09:37:06;17.50;99.90
63966;DHT22;50151;52.030;5.350;2023-05-07T09:39:46;17.60;99.90
63966;DHT22;50151;52.030;5.350;2023-05-07T09:42:13;17.80;99.90
63966;DHT22;50151;52.030;5.350;2023-05-07T09:44:43;17.80;99.90
63966;DHT22;50151;52.030;5.350;2023-05-07T09:47:10;18.00;99.90
63966;DHT22;50151;52.030;5.350;2023-05-07T09:49:39;18.00;99.90
63966;DHT22;50151;52.030;5.350;2023-05-07T09:52:10;18.20;99.90
63966;DHT22;50151;52.030;5.350;2023-05-07T09:54:41;18.10;99.90
63966;DHT22;50151;52.030;5.350;2023-05-07T09:57:15;18.20;99.90
63966;DHT22;50151;52.030;5.350;2023-05-07T09:59:43;18.30;99.90
63966;DHT22;50151;52.030;5.350;2023-05-07T10:02:10;18.30;99.90
63966;DHT22;50151;52.030;5.350;2023-05-07T10:04:37;18.40;99.90
63966;DHT22;50151;52.030;5.350;2023-05-07T10:07:04;18.40;99.90
63966;DHT22;50151;52.030;5.350;2023-05-07T10:09:32;18.60;99.90
63966;DHT22;50151;52.030;5.350;2023-05-07T10:11:58;18.60;99.90
63966;DHT22;50151;52.030;5.350;2023-05-07T10:14:27;18.60;99.90
63966;DHT22;50151;52.030;5.350;2023-05-07T10:16:54;18.70;99.90
63966;DHT22;50151;52.030;5.350;2023-05-07T10:19:22;18.90;99.90
63966;DHT22;50151;52.030;5.350;2023-05-07T10:21:59;19.10;99.90
63966;DHT22;50151;52.030;5.350;2023-05-07T10:24:35;19.00;99.90
63966;DHT22;50151;52.030;5.350;2023-05-07T10:27:10;19.10;99.90
63966;DHT22;50151;52.030;5.350;2023-05-07T10:29:56;19.20;99.90
63966;DHT22;50151;52.030;5.350;2023-05-07T10:32:40;19.20;99.90
63966;DHT22;50151;52.030;5.350;2023-05-07T10:35:25;19.40;99.90
63966;DHT22;50151;52.030;5.350;2023-05-07T10:37:52;19.50;99.90
63966;DHT22;50151;52.030;5.350;2023-05-07T10:40:20;19.70;99.90
63966;DHT22;50151;52.030;5.350;2023-05-07T10:45:26;19.80;99.90
63966;DHT22;50151;52.030;5.350;2023-05-07T10:48:12;20.00;99.90
63966;DHT22;50151;52.030;5.350;2023-05-07T10:51:18;20.30;99.90
63966;DHT22;50151;52.030;5.350;2023-05-07T10:53:46;20.10;99.90
63966;DHT22;50151;52.030;5.350;2023-05-07T10:58:45;20.30;99.90
63966;DHT22;50151;52.030;5.350;2023-05-07T11:01:12;20.40;99.90
63966;DHT22;50151;52.030;5.350;2023-05-07T11:04:20;20.50;99.90
63966;DHT22;50151;52.030;5.350;2023-05-07T11:15:07;20.80;99.90
63966;DHT22;50151;52.030;5.350;2023-05-07T11:17:35;20.30;99.90
63966;DHT22;50151;52.030;5.350;2023-05-07T11:20:03;20.70;99.90
63966;DHT22;50151;52.030;5.350;2023-05-07T11:25:03;20.80;99.90
63966;DHT22;50151;52.030;5.350;2023-05-07T11:27:30;20.70;99.90
63966;DHT22;50151;52.030;5.350;2023-05-07T11:29:57;20.80;99.90
63966;DHT22;50151;52.030;5.350;2023-05-07T11:32:28;20.80;99.90
63966;DHT22;50151;52.030;5.350;2023-05-07T11:34:58;20.90;99.90
63966;DHT22;50151;52.030;5.350;2023-05-07T11:37:26;21.20;99.90
63966;DHT22;50151;52.030;5.350;2023-05-07T11:40:04;21.30;99.90
63966;DHT22;50151;52.030;5.350;2023-05-07T11:42:37;21.50;99.90
63966;DHT22;50151;52.030;5.350;2023-05-07T11:45:06;21.50;99.90
63966;DHT22;50151;52.030;5.350;2023-05-07T11:47:34;21.40;99.90
63966;DHT22;50151;52.030;5.350;2023-05-07T11:50:07;21.50;99.90
63966;DHT22;50151;52.030;5.350;2023-05-07T11:52:35;21.60;99.90
63966;DHT22;50151;52.030;5.350;2023-05-07T11:55:04;21.50;99.90
63966;DHT22;50151;52.030;5.350;2023-05-07T11:57:33;21.60;99.90
63966;DHT22;50151;52.030;5.350;2023-05-07T12:00:01;21.80;99.90
63966;DHT22;50151;52.030;5.350;2023-05-07T12:02:31;21.80;99.90
63966;DHT22;50151;52.030;5.350;2023-05-07T12:05:01;21.70;92.40
63966;DHT22;50151;52.030;5.350;2023-05-07T12:07:29;21.60;92.70
63966;DHT22;50151;52.030;5.350;2023-05-07T12:09:56;21.70;86.90
63966;DHT22;50151;52.030;5.350;2023-05-07T12:12:22;22.00;90.20
63966;DHT22;50151;52.030;5.350;2023-05-07T12:14:49;22.30;90.50
63966;DHT22;50151;52.030;5.350;2023-05-07T12:17:16;22.30;96.00
63966;DHT22;50151;52.030;5.350;2023-05-07T12:19:44;22.40;90.20
63966;DHT22;50151;52.030;5.350;2023-05-07T12:22:12;22.40;85.10
63966;DHT22;50151;52.030;5.350;2023-05-07T12:24:49;22.00;91.10
63966;DHT22;50151;52.030;5.350;2023-05-07T12:27:19;22.10;78.80
63966;DHT22;50151;52.030;5.350;2023-05-07T12:29:48;22.40;85.20
63966;DHT22;50151;52.030;5.350;2023-05-07T12:32:16;22.50;84.50
63966;DHT22;50151;52.030;5.350;2023-05-07T12:34:44;22.40;75.20
63966;DHT22;50151;52.030;5.350;2023-05-07T12:37:12;22.40;78.00
63966;DHT22;50151;52.030;5.350;2023-05-07T12:39:47;22.20;81.10
63966;DHT22;50151;52.030;5.350;2023-05-07T12:42:16;22.20;89.90
63966;DHT22;50151;52.030;5.350;2023-05-07T12:44:45;22.10;88.10
63966;DHT22;50151;52.030;5.350;2023-05-07T12:47:12;22.20;86.80
63966;DHT22;50151;52.030;5.350;2023-05-07T12:49:39;22.30;87.30
63966;DHT22;50151;52.030;5.350;2023-05-07T12:52:14;22.10;87.70
63966;DHT22;50151;52.030;5.350;2023-05-07T12:54:41;22.20;86.00
63966;DHT22;50151;52.030;5.350;2023-05-07T12:57:10;22.10;82.80
63966;DHT22;50151;52.030;5.350;2023-05-07T12:59:44;22.40;88.10
63966;DHT22;50151;52.030;5.350;2023-05-07T13:02:11;22.40;90.10
63966;DHT22;50151;52.030;5.350;2023-05-07T13:04:37;22.20;91.40
63966;DHT22;50151;52.030;5.350;2023-05-07T13:07:04;22.20;86.00
63966;DHT22;50151;52.030;5.350;2023-05-07T13:09:31;22.10;88.10
63966;DHT22;50151;52.030;5.350;2023-05-07T13:11:58;22.10;83.70
63966;DHT22;50151;52.030;5.350;2023-05-07T13:14:28;22.10;83.60
63966;DHT22;50151;52.030;5.350;2023-05-07T13:16:55;22.00;82.70
63966;DHT22;50151;52.030;5.350;2023-05-07T13:19:21;22.10;84.70
63966;DHT22;50151;52.030;5.350;2023-05-07T13:21:48;22.20;85.80
63966;DHT22;50151;52.030;5.350;2023-05-07T13:24:16;22.20;82.20
63966;DHT22;50151;52.030;5.350;2023-05-07T13:26:42;22.20;85.10
63966;DHT22;50151;52.030;5.350;2023-05-07T13:29:11;22.30;88.00
63966;DHT22;50151;52.030;5.350;2023-05-07T13:31:39;22.10;75.50
63966;DHT22;50151;52.030;5.350;2023-05-07T13:34:09;22.00;76.00
63966;DHT22;50151;52.030;5.350;2023-05-07T13:36:36;21.80;76.70
63966;DHT22;50151;52.030;5.350;2023-05-07T13:39:06;22.10;76.30
63966;DHT22;50151;52.030;5.350;2023-05-07T13:41:33;22.30;78.10
63966;DHT22;50151;52.030;5.350;2023-05-07T13:44:00;22.40;78.00
63966;DHT22;50151;52.030;5.350;2023-05-07T13:46:26;22.30;77.40
63966;DHT22;50151;52.030;5.350;2023-05-07T13:48:53;22.20;81.10
63966;DHT22;50151;52.030;5.350;2023-05-07T13:51:20;22.40;79.40
63966;DHT22;50151;52.030;5.350;2023-05-07T13:53:47;22.50;80.00
63966;DHT22;50151;52.030;5.350;2023-05-07T13:56:14;22.60;80.30
63966;DHT22;50151;52.030;5.350;2023-05-07T13:58:41;22.60;73.50
63966;DHT22;50151;52.030;5.350;2023-05-07T14:01:25;22.60;74.00
63966;DHT22;50151;52.030;5.350;2023-05-07T14:03:52;22.50;69.70
63966;DHT22;50151;52.030;5.350;2023-05-07T14:06:21;22.50;74.90
63966;DHT22;50151;52.030;5.350;2023-05-07T14:08:48;22.70;70.90
63966;DHT22;50151;52.030;5.350;2023-05-07T14:11:15;23.30;70.60
63966;DHT22;50151;52.030;5.350;2023-05-07T14:13:42;23.80;66.20
63966;DHT22;50151;52.030;5.350;2023-05-07T14:16:09;23.80;63.10
63966;DHT22;50151;52.030;5.350;2023-05-07T14:18:35;24.00;64.40
63966;DHT22;50151;52.030;5.350;2023-05-07T14:21:04;23.70;60.40
63966;DHT22;50151;52.030;5.350;2023-05-07T14:23:32;23.50;62.40
63966;DHT22;50151;52.030;5.350;2023-05-07T14:25:59;23.50;65.50
63966;DHT22;50151;52.030;5.350;2023-05-07T14:28:26;23.40;64.90
63966;DHT22;50151;52.030;5.350;2023-05-07T14:30:52;23.40;68.50
63966;DHT22;50151;52.030;5.350;2023-05-07T14:33:19;23.50;66.10
63966;DHT22;50151;52.030;5.350;2023-05-07T14:35:46;23.30;67.00
63966;DHT22;50151;52.030;5.350;2023-05-07T14:38:16;23.70;68.60
63966;DHT22;50151;52.030;5.350;2023-05-07T14:40:42;23.50;66.30
63966;DHT22;50151;52.030;5.350;2023-05-07T14:43:09;23.30;67.50
63966;DHT22;50151;52.030;5.350;2023-05-07T14:45:36;22.90;73.70
63966;DHT22;50151;52.030;5.350;2023-05-07T14:48:03;23.00;75.60
63966;DHT22;50151;52.030;5.350;2023-05-07T14:50:30;22.90;77.30
63966;DHT22;50151;52.030;5.350;2023-05-07T14:52:56;22.70;76.50
63966;DHT22;50151;52.030;5.350;2023-05-07T14:55:23;22.40;79.00
63966;DHT22;50151;52.030;5.350;2023-05-07T14:57:51;22.50;75.10
63966;DHT22;50151;52.030;5.350;2023-05-07T15:00:19;22.40;76.10
63966;DHT22;50151;52.030;5.350;2023-05-07T15:02:46;22.30;75.30
63966;DHT22;50151;52.030;5.350;2023-05-07T15:05:13;22.30;71.10
63966;DHT22;50151;52.030;5.350;2023-05-07T15:07:41;22.30;72.00
63966;DHT22;50151;52.030;5.350;2023-05-07T15:10:08;22.30;71.10
63966;DHT22;50151;52.030;5.350;2023-05-07T15:12:35;22.20;72.40
63966;DHT22;50151;52.030;5.350;2023-05-07T15:15:02;22.30;71.40
63966;DHT22;50151;52.030;5.350;2023-05-07T15:17:28;22.30;71.90
63966;DHT22;50151;52.030;5.350;2023-05-07T15:19:55;22.10;74.70
63966;DHT22;50151;52.030;5.350;2023-05-07T15:22:22;22.10;73.80
63966;DHT22;50151;52.030;5.350;2023-05-07T15:24:48;21.10;87.00
63966;DHT22;50151;52.030;5.350;2023-05-07T15:27:15;20.90;92.30
63966;DHT22;50151;52.030;5.350;2023-05-07T15:29:43;20.20;93.20
63966;DHT22;50151;52.030;5.350;2023-05-07T15:32:10;20.30;94.00
63966;DHT22;50151;52.030;5.350;2023-05-07T15:34:37;20.20;92.70
63966;DHT22;50151;52.030;5.350;2023-05-07T15:37:03;20.40;94.50
63966;DHT22;50151;52.030;5.350;2023-05-07T15:39:30;20.30;94.90
63966;DHT22;50151;52.030;5.350;2023-05-07T15:41:57;19.90;95.30
63966;DHT22;50151;52.030;5.350;2023-05-07T15:44:24;19.90;96.10
63966;DHT22;50151;52.030;5.350;2023-05-07T15:46:55;19.70;96.30
63966;DHT22;50151;52.030;5.350;2023-05-07T15:49:21;19.90;95.90
63966;DHT22;50151;52.030;5.350;2023-05-07T15:51:48;19.50;96.30
63966;DHT22;50151;52.030;5.350;2023-05-07T15:54:17;19.90;94.90